Time;durP1;ratioP1;P1;durP2;ratioP2;P2;SDS_P1;SDS_P2;PMS_P1;PMS_P2;Temp;Humidity;BMP_temperature;BMP_pressure;BME280_temperature;BME280_humidity;BME280_pressure;Samples;Min_cycle;Max_cycle;Signal;HPM_P1;HPM_P2
2023/06/04 00:00:26;;;;;;;3.30;1.45;;;15.50;99.90;;;;;;5071493;28;20532;-46
2023/06/04 00:02:52;;;;;;;1.50;1.30;;;15.40;93.80;;;;;;5071387;28;20582;-47
2023/06/04 00:05:17;;;;;;;1.80;1.40;;;15.00;92.70;;;;;;5070987;28;20710;-46
2023/06/04 00:07:43;;;;;;;3.97;1.70;;;15.20;93.70;;;;;;5071209;28;20221;-46
2023/06/04 00:10:09;;;;;;;2.75;1.50;;;15.30;92.30;;;;;;5071388;28;20276;-47
2023/06/04 00:12:34;;;;;;;1.50;1.35;;;15.50;97.60;;;;;;5071498;28;20233;-47
2023/06/04 00:15:00;;;;;;;2.25;1.67;;;15.20;95.00;;;;;;5071833;28;20239;-46
2023/06/04 00:17:26;;;;;;;1.98;1.40;;;15.30;97.90;;;;;;5071206;28;20185;-46
2023/06/04 00:19:51;;;;;;;1.95;1.50;;;15.30;99.90;;;;;;5072953;28;20178;-46
2023/06/04 00:22:17;;;;;;;2.53;1.38;;;15.00;99.90;;;;;;5075378;28;20169;-47
2023/06/04 00:24:42;;;;;;;1.67;1.58;;;14.90;97.50;;;;;;5075227;28;20174;-47
2023/06/04 00:27:08;;;;;;;2.20;1.80;;;14.80;99.90;;;;;;5075385;28;20168;-46
2023/06/04 00:29:34;;;;;;;3.08;1.73;;;14.90;99.90;;;;;;5075299;28;20166;-46
2023/06/04 00:32:00;;;;;;;2.35;1.50;;;14.80;99.90;;;;;;5075539;28;20193;-46
2023/06/04 00:34:25;;;;;;;1.73;1.48;;;14.80;99.90;;;;;;5075183;28;20174;-47
2023/06/04 00:36:51;;;;;;;1.50;1.40;;;14.70;99.90;;;;;;5075412;28;20657;-46
2023/06/04 00:39:16;;;;;;;2.42;1.77;;;14.70;99.90;;;;;;5075292;28;20177;-46
2023/06/04 00:41:42;;;;;;;2.28;1.45;;;14.50;99.90;;;;;;5074898;28;20223;-47
2023/06/04 00:44:07;;;;;;;2.33;1.70;;;14.60;99.90;;;;;;5057109;28;20200;-46
2023/06/04 00:46:35;;;;;;;3.08;1.35;;;14.50;99.90;;;;;;5074941;28;20170;-47
2023/06/04 00:49:01;;;;;;;1.85;1.48;;;14.60;99.90;;;;;;5075500;28;20243;-46
2023/06/04 00:51:31;;;;;;;2.25;1.42;;;14.60;99.90;;;;;;5075087;28;20214;-46
2023/06/04 00:53:58;;;;;;;3.10;1.95;;;14.60;99.90;;;;;;5075212;28;20209;-47
2023/06/04 00:56:23;;;;;;;2.08;1.77;;;14.70;99.90;;;;;;5074929;28;20170;-47
2023/06/04 00:58:49;;;;;;;2.30;1.45;;;14.50;99.90;;;;;;5074652;28;20188;-47
2023/06/04 01:01:37;;;;;;;3.75;1.85;;;14.50;99.90;;;;;;5074607;28;20166;-47
2023/06/04 01:04:04;;;;;;;3.20;1.60;;;14.60;99.90;;;;;;5074804;28;20170;-47
2023/06/04 01:06:38;;;;;;;4.32;1.60;;;14.60;99.90;;;;;;5074821;28;20719;-47
2023/06/04 01:09:05;;;;;;;2.60;1.60;;;14.50;99.90;;;;;;5074454;28;20252;-47
2023/06/04 01:11:36;;;;;;;2.25;1.42;;;14.60;99.90;;;;;;5074796;28;20257;-47
2023/06/04 01:14:03;;;;;;;1.85;1.50;;;14.60;99.90;;;;;;5074361;28;20289;-48
2023/06/04 01:16:45;;;;;;;2.22;1.58;;;14.40;99.90;;;;;;5075130;28;20166;-47
2023/06/04 01:19:51;;;;;;;4.28;1.88;;;14.60;99.90;;;;;;5074284;28;20174;-47
2023/06/04 01:22:38;;;;;;;2.03;1.42;;;14.30;99.90;;;;;;5046057;28;20649;-47
2023/06/04 01:25:26;;;;;;;2.80;1.58;;;14.30;99.90;;;;;;5074012;28;20170;-47
2023/06/04 01:27:56;;;;;;;2.67;1.70;;;14.10;99.90;;;;;;5074333;28;20178;-47
2023/06/04 01:30:29;;;;;;;1.88;1.65;;;13.90;99.90;;;;;;5073620;28;20197;-47
2023/06/04 01:32:55;;;;;;;3.47;1.55;;;13.70;99.90;;;;;;5073853;28;20197;-47
2023/06/04 01:35:21;;;;;;;4.03;1.33;;;13.80;99.90;;;;;;5074196;28;20204;-47
2023/06/04 01:37:47;;;;;;;2.08;1.30;;;13.80;99.90;;;;;;5056018;28;20657;-47
2023/06/04 01:40:13;;;;;;;5.13;1.90;;;13.90;99.90;;;;;;5074042;28;20170;-47
2023/06/04 01:42:38;;;;;;;1.65;1.48;;;13.80;99.90;;;;;;5074069;28;20174;-47
2023/06/04 01:45:05;;;;;;;2.17;1.60;;;13.90;99.90;;;;;;5074041;28;20245;-47
2023/06/04 01:47:30;;;;;;;1.88;1.42;;;13.80;99.90;;;;;;5074067;28;20170;-47
2023/06/04 01:49:56;;;;;;;1.73;1.50;;;13.90;99.90;;;;;;5073994;28;20657;-47
2023/06/04 01:52:21;;;;;;;2.47;1.63;;;14.00;99.90;;;;;;5073619;28;20209;-47
2023/06/04 01:54:52;;;;;;;1.98;1.70;;;14.00;99.90;;;;;;5073898;28;20227;-47
2023/06/04 01:57:19;;;;;;;3.25;1.42;;;14.00;99.90;;;;;;5073863;28;20216;-47
2023/06/04 01:59:45;;;;;;;2.10;1.67;;;14.00;99.90;;;;;;5073864;28;20170;-47
2023/06/04 02:02:10;;;;;;;5.55;1.70;;;14.00;99.90;;;;;;5073520;28;20189;-47
2023/06/04 02:04:36;;;;;;;2.83;1.50;;;14.20;99.90;;;;;;5073414;28;20162;-47
2023/06/04 02:07:02;;;;;;;1.92;1.50;;;13.80;99.90;;;;;;5073488;28;20216;-47
2023/06/04 02:09:28;;;;;;;1.92;1.70;;;13.80;99.90;;;;;;5073811;28;20174;-47
2023/06/04 02:11:53;;;;;;;2.00;1.40;;;14.30;99.90;;;;;;5073361;28;20204;-47
2023/06/04 02:14:19;;;;;;;3.00;1.42;;;13.60;99.90;;;;;;5073235;28;20533;-47
2023/06/04 02:16:49;;;;;;;2.47;1.50;;;13.60;99.90;;;;;;5073560;28;20235;-47
2023/06/04 02:19:15;;;;;;;2.45;1.70;;;13.40;99.90;;;;;;5073264;28;20629;-47
2023/06/04 02:21:40;;;;;;;1.85;1.50;;;13.40;99.90;;;;;;5073425;28;20169;-47
2023/06/04 02:24:06;;;;;;;4.38;1.88;;;13.20;99.90;;;;;;5073335;28;20174;-47
2023/06/04 02:26:32;;;;;;;2.33;1.70;;;13.80;99.90;;;;;;5073194;28;20241;-47
2023/06/04 02:28:57;;;;;;;5.03;1.95;;;13.30;99.90;;;;;;5073686;28;20170;-47
2023/06/04 02:31:23;;;;;;;1.73;1.52;;;13.40;99.90;;;;;;5073084;28;20170;-47
2023/06/04 02:33:48;;;;;;;2.40;1.65;;;13.20;99.90;;;;;;5072845;28;20210;-47
2023/06/04 02:36:15;;;;;;;2.10;1.77;;;13.30;99.90;;;;;;5072838;28;20220;-47
2023/06/04 02:38:41;;;;;;;4.95;2.17;;;13.10;99.90;;;;;;5072737;28;20253;-47
2023/06/04 02:41:06;;;;;;;2.60;2.03;;;13.20;99.90;;;;;;5072755;28;20189;-47
2023/06/04 02:43:32;;;;;;;2.90;2.15;;;13.30;99.90;;;;;;5071777;28;20581;-47
2023/06/04 02:45:57;;;;;;;9.75;2.70;;;13.20;99.90;;;;;;5073140;28;20499;-46
2023/06/04 02:48:23;;;;;;;5.45;2.38;;;13.30;99.90;;;;;;5054612;28;20706;-47
2023/06/04 02:50:48;;;;;;;3.45;1.73;;;13.90;99.90;;;;;;5072507;28;20214;-47
2023/06/04 02:53:14;;;;;;;3.63;1.83;;;13.20;99.90;;;;;;5072360;28;20296;-47
2023/06/04 02:55:41;;;;;;;2.67;2.17;;;13.50;99.90;;;;;;5072452;28;20300;-47
2023/06/04 02:58:08;;;;;;;3.13;1.90;;;13.20;99.90;;;;;;5072463;28;20186;-47
2023/06/04 03:00:34;;;;;;;1.95;1.73;;;13.30;99.90;;;;;;5054767;28;20656;-47
2023/06/04 03:03:03;;;;;;;3.67;1.90;;;13.20;99.90;;;;;;5072817;28;20174;-47
2023/06/04 03:05:31;;;;;;;3.92;1.73;;;13.40;99.90;;;;;;5072662;28;20212;-47
2023/06/04 03:07:58;;;;;;;4.47;2.17;;;13.30;99.90;;;;;;5072485;28;20222;-47
2023/06/04 03:10:24;;;;;;;2.83;1.63;;;13.20;99.90;;;;;;5072127;28;20656;-47
2023/06/04 03:12:49;;;;;;;4.75;2.10;;;13.00;99.90;;;;;;5071998;28;20209;-47
2023/06/04 03:15:15;;;;;;;3.65;1.85;;;13.20;99.90;;;;;;5072265;28;20177;-47
2023/06/04 03:17:41;;;;;;;4.55;1.77;;;13.10;99.90;;;;;;5072117;28;20256;-47
2023/06/04 03:20:07;;;;;;;1.70;1.42;;;14.10;99.90;;;;;;5072195;28;20204;-47
2023/06/04 03:22:35;;;;;;;3.72;1.98;;;13.10;99.90;;;;;;5072197;28;20174;-47
2023/06/04 03:25:01;;;;;;;3.30;1.90;;;13.00;99.90;;;;;;5072546;28;20240;-47
2023/06/04 03:27:27;;;;;;;3.97;1.95;;;13.00;99.90;;;;;;5072533;28;20177;-47
2023/06/04 03:29:53;;;;;;;5.45;2.00;;;13.00;99.90;;;;;;5071877;28;20166;-47
2023/06/04 03:32:18;;;;;;;8.60;2.00;;;13.00;99.90;;;;;;5071666;28;20280;-47
2023/06/04 03:34:44;;;;;;;3.67;2.33;;;13.00;99.90;;;;;;5071902;28;20165;-47
2023/06/04 03:37:10;;;;;;;4.45;2.00;;;13.00;99.90;;;;;;5071908;28;20167;-46
2023/06/04 03:39:35;;;;;;;3.67;2.30;;;12.80;99.90;;;;;;5071966;28;20166;-47
2023/06/04 03:42:01;;;;;;;4.70;2.03;;;12.80;99.90;;;;;;5071667;28;20659;-47
2023/06/04 03:44:27;;;;;;;7.90;1.88;;;12.90;99.90;;;;;;5072014;28;20637;-47
2023/06/04 03:46:52;;;;;;;4.18;2.25;;;13.00;99.90;;;;;;5071637;28;20228;-47
2023/06/04 03:49:19;;;;;;;5.55;2.70;;;12.90;99.90;;;;;;5071825;28;20162;-47
2023/06/04 03:51:44;;;;;;;2.40;1.77;;;12.70;99.90;;;;;;5071740;28;20174;-47
2023/06/04 03:54:11;;;;;;;2.97;1.92;;;13.00;99.90;;;;;;5071271;28;20176;-47
2023/06/04 03:56:37;;;;;;;4.45;2.10;;;12.90;99.90;;;;;;5071624;28;20196;-47
2023/06/04 03:59:02;;;;;;;4.03;2.03;;;12.90;99.90;;;;;;5071477;28;20209;-47
2023/06/04 04:01:28;;;;;;;3.83;2.33;;;12.90;99.90;;;;;;5053872;28;20170;-48
2023/06/04 04:03:54;;;;;;;4.50;2.22;;;12.90;99.90;;;;;;5071375;28;20252;-47
2023/06/04 04:06:20;;;;;;;7.53;2.40;;;12.80;99.90;;;;;;5071220;28;20197;-46
2023/06/04 04:08:46;;;;;;;2.20;1.80;;;12.90;99.90;;;;;;5071366;28;20170;-47
2023/06/04 04:11:15;;;;;;;4.05;2.42;;;12.70;99.90;;;;;;5071435;28;20200;-47
2023/06/04 04:13:41;;;;;;;4.82;2.17;;;12.80;99.90;;;;;;5071304;28;20244;-47
2023/06/04 04:16:07;;;;;;;3.20;2.38;;;12.70;99.90;;;;;;5053367;28;20170;-47
2023/06/04 04:18:34;;;;;;;4.05;1.85;;;12.70;99.90;;;;;;5071243;28;20239;-47
2023/06/04 04:21:00;;;;;;;6.22;2.50;;;12.70;99.90;;;;;;5071746;28;20226;-47
2023/06/04 04:23:27;;;;;;;3.85;2.30;;;12.50;99.90;;;;;;5071800;28;20260;-47
2023/06/04 04:25:53;;;;;;;2.60;2.10;;;12.60;99.90;;;;;;5071504;28;20177;-47
2023/06/04 04:28:19;;;;;;;2.65;1.92;;;12.80;99.90;;;;;;5071401;28;20174;-47
2023/06/04 04:30:46;;;;;;;3.03;2.20;;;12.90;99.90;;;;;;5071190;28;20214;-47
2023/06/04 04:33:15;;;;;;;3.70;2.08;;;13.00;99.90;;;;;;5071053;28;20233;-47
2023/06/04 04:35:42;;;;;;;5.57;2.03;;;13.40;99.90;;;;;;5071175;28;20185;-47
2023/06/04 04:38:08;;;;;;;4.10;2.20;;;13.20;99.90;;;;;;5071309;28;20170;-47
2023/06/04 04:40:33;;;;;;;3.95;2.50;;;13.40;99.90;;;;;;5071063;28;20649;-47
2023/06/04 04:42:59;;;;;;;2.72;2.25;;;13.40;99.90;;;;;;5053447;28;20223;-47
2023/06/04 04:45:25;;;;;;;2.38;2.08;;;13.70;99.90;;;;;;5070980;28;20653;-47
2023/06/04 04:47:53;;;;;;;4.97;2.28;;;14.00;99.90;;;;;;5071245;28;20182;-47
2023/06/04 04:50:18;;;;;;;3.72;2.40;;;13.80;99.90;;;;;;5070945;28;20166;-47
2023/06/04 04:52:44;;;;;;;6.03;1.88;;;14.30;99.90;;;;;;5070876;28;20213;-47
2023/06/04 04:55:11;;;;;;;5.43;2.38;;;14.40;99.90;;;;;;5071171;28;20262;-47
2023/06/04 04:57:37;;;;;;;3.08;2.20;;;13.90;99.90;;;;;;5071302;28;20178;-47
2023/06/04 05:00:05;;;;;;;2.20;2.00;;;14.20;99.90;;;;;;5052932;28;20166;-47
2023/06/04 05:02:31;;;;;;;5.90;2.30;;;14.10;99.90;;;;;;5070896;28;20723;-47
2023/06/04 05:04:57;;;;;;;3.38;2.30;;;14.50;99.90;;;;;;5071313;28;20170;-47
2023/06/04 05:07:23;;;;;;;6.45;2.17;;;14.80;99.90;;;;;;5074328;28;20221;-47
2023/06/04 05:09:49;;;;;;;3.53;2.28;;;14.50;99.90;;;;;;5074775;28;20182;-47
2023/06/04 05:12:14;;;;;;;5.00;2.60;;;15.20;99.90;;;;;;5074230;28;20186;-47
2023/06/04 05:14:41;;;;;;;4.00;2.08;;;15.30;99.90;;;;;;5074627;28;20184;-47
2023/06/04 05:17:10;;;;;;;4.60;2.22;;;14.80;99.90;;;;;;5074520;28;20170;-47
2023/06/04 05:19:36;;;;;;;6.35;2.42;;;15.40;99.90;;;;;;5074464;28;20166;-47
2023/06/04 05:22:03;;;;;;;6.43;2.17;;;15.10;99.90;;;;;;5074287;28;20162;-47
2023/06/04 05:24:29;;;;;;;11.13;3.47;;;15.50;99.90;;;;;;5074589;28;20158;-48
2023/06/04 05:26:56;;;;;;;3.10;2.30;;;15.10;99.90;;;;;;5074204;28;20170;-47
2023/06/04 05:29:22;;;;;;;2.50;2.13;;;15.60;99.90;;;;;;5074093;28;20155;-47
2023/06/04 05:31:48;;;;;;;4.20;2.35;;;15.50;99.90;;;;;;5073973;28;20190;-48
2023/06/04 05:34:16;;;;;;;4.55;2.45;;;15.20;99.90;;;;;;5074039;28;20213;-47
2023/06/04 05:36:42;;;;;;;3.88;2.30;;;;;;;;;;5074257;28;20544;-47
2023/06/04 05:39:09;;;;;;;3.47;2.53;;;15.70;99.90;;;;;;5073948;28;20636;-47
2023/06/04 05:41:35;;;;;;;5.85;2.80;;;15.40;99.90;;;;;;5073959;28;20226;-47
2023/06/04 05:44:01;;;;;;;4.65;2.85;;;15.50;99.90;;;;;;5073999;28;20186;-48
2023/06/04 05:46:27;;;;;;;4.35;2.60;;;15.30;99.90;;;;;;5074223;28;20245;-47
2023/06/04 05:48:53;;;;;;;3.58;2.50;;;15.60;99.90;;;;;;5073805;28;20576;-47
2023/06/04 05:51:19;;;;;;;3.58;2.70;;;15.90;99.90;;;;;;5073939;28;20284;-48
2023/06/04 05:53:45;;;;;;;3.15;2.40;;;16.10;99.90;;;;;;5073838;28;20684;-48
2023/06/04 05:56:11;;;;;;;5.15;2.42;;;;;;;;;;5073958;28;20170;-47
2023/06/04 05:58:37;;;;;;;3.25;2.28;;;;;;;;;;5073877;28;20522;-47
2023/06/04 06:01:03;;;;;;;5.78;2.35;;;;;;;;;;5073546;28;20249;-47
2023/06/04 06:03:29;;;;;;;2.33;2.05;;;16.10;99.90;;;;;;5074158;28;20260;-48
2023/06/04 06:05:57;;;;;;;2.58;2.05;;;16.30;99.90;;;;;;5073499;28;20193;-47
2023/06/04 06:08:22;;;;;;;5.07;2.10;;;16.20;99.90;;;;;;5073245;28;20320;-47
2023/06/04 06:10:48;;;;;;;3.05;2.47;;;16.20;99.90;;;;;;5073322;28;20253;-48
2023/06/04 06:13:15;;;;;;;3.03;2.10;;;;;;;;;;5073472;28;20218;-47
2023/06/04 06:15:40;;;;;;;3.83;2.10;;;16.50;99.90;;;;;;5073502;28;20196;-47
2023/06/04 06:18:06;;;;;;;2.88;2.03;;;16.00;99.90;;;;;;5073193;28;20582;-47
2023/06/04 06:20:32;;;;;;;3.30;2.10;;;16.20;99.90;;;;;;5073175;28;20670;-47
2023/06/04 06:22:58;;;;;;;4.70;2.38;;;15.90;99.90;;;;;;5073391;28;20582;-46
2023/06/04 06:25:23;;;;;;;4.47;2.10;;;16.50;99.90;;;;;;5073115;28;20197;-47
2023/06/04 06:27:49;;;;;;;4.50;1.92;;;;;;;;;;5073071;28;20170;-47
2023/06/04 06:30:15;;;;;;;5.03;2.08;;;16.60;99.90;;;;;;5072982;28;20716;-47
2023/06/04 06:32:41;;;;;;;3.70;2.17;;;16.40;99.90;;;;;;5072982;28;20285;-47
2023/06/04 06:35:07;;;;;;;3.63;2.20;;;;;;;;;;5081444;28;20525;-49
2023/06/04 06:37:33;;;;;;;5.32;2.22;;;17.10;99.90;;;;;;5091551;28;20204;-50
2023/06/04 06:39:59;;;;;;;4.63;2.42;;;;;;;;;;5091937;28;20189;-48
2023/06/04 06:42:25;;;;;;;2.80;1.80;;;17.10;99.90;;;;;;5091216;28;20177;-49
2023/06/04 06:44:50;;;;;;;7.22;2.22;;;17.70;99.90;;;;;;5091239;28;20165;-49
2023/06/04 06:47:16;;;;;;;2.72;2.28;;;17.60;99.90;;;;;;5091239;28;20177;-49
2023/06/04 06:49:41;;;;;;;3.92;2.17;;;17.70;99.90;;;;;;5091111;28;20173;-48
2023/06/04 06:52:07;;;;;;;4.03;2.28;;;;;;;;;;5090919;28;20551;-48
2023/06/04 06:54:33;;;;;;;4.72;1.98;;;17.80;99.90;;;;;;5090764;28;20237;-49
2023/06/04 06:56:59;;;;;;;2.63;2.00;;;17.90;99.90;;;;;;5091372;28;20210;-50
2023/06/04 06:59:25;;;;;;;3.60;2.17;;;18.20;99.90;;;;;;5090930;28;20165;-49
2023/06/04 07:01:51;;;;;;;4.32;2.47;;;17.90;99.90;;;;;;5090799;28;20173;-49
2023/06/04 07:04:17;;;;;;;2.83;2.40;;;17.70;99.90;;;;;;5090381;28;20162;-49
2023/06/04 07:06:43;;;;;;;4.32;2.10;;;;;;;;;;5090734;28;20217;-49
2023/06/04 07:09:09;;;;;;;6.75;2.22;;;18.20;99.90;;;;;;5090546;28;20204;-49
2023/06/04 07:11:35;;;;;;;5.38;2.42;;;18.30;99.90;;;;;;5090638;28;20157;-49
2023/06/04 07:14:02;;;;;;;2.92;2.00;;;18.20;99.90;;;;;;5090292;28;20742;-49
2023/06/04 07:16:28;;;;;;;5.63;2.33;;;18.20;99.90;;;;;;5091183;28;20252;-49
2023/06/04 07:18:54;;;;;;;5.22;2.20;;;18.00;99.90;;;;;;5090508;28;20193;-49
2023/06/04 07:21:21;;;;;;;1.92;1.75;;;18.10;99.90;;;;;;5090467;28;20193;-50
2023/06/04 07:23:49;;;;;;;5.78;1.90;;;18.60;99.90;;;;;;5090513;28;20165;-50
2023/06/04 07:26:15;;;;;;;3.80;1.90;;;18.30;99.90;;;;;;5090532;28;20180;-50
2023/06/04 07:28:41;;;;;;;6.70;2.00;;;18.20;98.90;;;;;;5090160;28;20184;-49
2023/06/04 07:31:07;;;;;;;6.03;1.80;;;18.80;99.50;;;;;;5090385;28;20176;-49
2023/06/04 07:33:32;;;;;;;3.63;2.10;;;19.00;99.90;;;;;;5090147;28;20235;-49
2023/06/04 07:35:58;;;;;;;5.03;2.22;;;;;;;;;;5090493;28;20173;-49
2023/06/04 07:38:25;;;;;;;3.88;2.30;;;19.10;99.30;;;;;;5090589;28;20598;-49
2023/06/04 07:40:50;;;;;;;3.70;2.22;;;19.40;99.70;;;;;;5090271;28;20166;-49
2023/06/04 07:43:16;;;;;;;10.82;2.25;;;19.20;97.50;;;;;;5090455;28;20659;-49
2023/06/04 07:45:41;;;;;;;4.07;1.90;;;19.60;96.50;;;;;;5090131;28;20568;-49
2023/06/04 07:48:10;;;;;;;5.32;2.33;;;19.70;95.80;;;;;;5089947;28;20173;-49
2023/06/04 07:50:36;;;;;;;3.33;1.90;;;19.90;95.10;;;;;;5090196;28;20169;-49
2023/06/04 07:53:02;;;;;;;3.28;1.90;;;;;;;;;;5089665;28;20200;-49
2023/06/04 07:55:28;;;;;;;2.80;2.00;;;;;;;;;;5090512;28;20629;-50
2023/06/04 07:57:53;;;;;;;4.38;1.92;;;19.90;94.10;;;;;;5089960;28;20222;-49
2023/06/04 08:00:19;;;;;;;5.00;1.77;;;20.20;95.20;;;;;;5089830;28;20169;-49
2023/06/04 08:02:45;;;;;;;2.60;2.05;;;20.20;93.40;;;;;;5089831;28;20208;-49
2023/06/04 08:05:13;;;;;;;5.63;2.15;;;20.10;92.40;;;;;;5089785;28;20609;-49
2023/06/04 08:07:39;;;;;;;3.42;1.95;;;20.50;92.50;;;;;;5088955;28;20575;-49
2023/06/04 08:10:06;;;;;;;3.13;1.63;;;;;;;;;;5089917;28;20177;-49
2023/06/04 08:12:31;;;;;;;3.10;2.38;;;20.10;92.50;;;;;;5089495;28;20200;-49
2023/06/04 08:14:57;;;;;;;2.65;1.40;;;20.50;91.60;;;;;;5089989;28;20165;-49
2023/06/04 08:17:23;;;;;;;4.70;1.92;;;21.10;91.00;;;;;;5089636;28;20173;-49
2023/06/04 08:19:49;;;;;;;2.58;1.90;;;20.50;90.60;;;;;;5089381;28;20188;-50
2023/06/04 08:22:15;;;;;;;4.20;1.90;;;21.30;91.20;;;;;;5089395;28;20173;-50
2023/06/04 08:24:40;;;;;;;3.55;1.92;;;21.30;90.00;;;;;;5089420;28;20169;-50
2023/06/04 08:27:08;;;;;;;6.65;2.30;;;21.00;90.00;;;;;;5089406;28;20162;-50
2023/06/04 08:29:35;;;;;;;2.88;1.90;;;21.30;90.50;;;;;;5089614;28;20177;-50
2023/06/04 08:32:01;;;;;;;3.53;1.90;;;21.10;89.80;;;;;;5089475;28;20260;-49
2023/06/04 08:34:26;;;;;;;5.75;2.10;;;21.20;90.20;;;;;;5090118;28;20263;-50
2023/06/04 08:36:52;;;;;;;3.95;2.15;;;21.30;89.00;;;;;;5089549;28;20245;-49
2023/06/04 08:39:18;;;;;;;3.42;1.83;;;21.40;89.40;;;;;;5089474;28;20216;-49
2023/06/04 08:41:51;;;;;;;4.65;2.15;;;21.60;88.00;;;;;;5092826;28;20589;-50
2023/06/04 08:44:17;;;;;;;2.47;1.83;;;22.10;88.90;;;;;;5093274;28;20249;-49
2023/06/04 08:46:44;;;;;;;3.25;1.92;;;21.60;86.90;;;;;;5075304;28;20166;-49
2023/06/04 08:49:12;;;;;;;3.53;2.00;;;22.00;89.60;;;;;;5093696;28;20172;-49
2023/06/04 08:51:38;;;;;;;3.78;2.00;;;22.00;85.40;;;;;;5093298;28;20165;-49
2023/06/04 08:54:07;;;;;;;2.25;2.05;;;22.00;83.60;;;;;;5093042;28;20603;-49
2023/06/04 08:56:34;;;;;;;2.67;2.00;;;21.90;83.30;;;;;;5093287;28;20228;-49
2023/06/04 08:59:03;;;;;;;2.88;1.60;;;22.20;81.80;;;;;;5093221;28;20169;-49
2023/06/04 09:01:33;;;;;;;3.40;1.92;;;22.80;82.30;;;;;;5093718;28;20200;-49
2023/06/04 09:04:01;;;;;;;5.22;2.25;;;23.00;81.10;;;;;;5093601;28;20223;-49
2023/06/04 09:06:27;;;;;;;6.22;3.28;;;22.40;79.40;;;;;;5093231;28;20214;-49
2023/06/04 09:08:59;;;;;;;6.35;4.22;;;22.40;80.20;;;;;;5092855;28;20176;-50
2023/06/04 09:11:30;;;;;;;4.97;3.83;;;22.50;79.30;;;;;;5093105;28;20169;-49
2023/06/04 09:14:01;;;;;;;4.43;2.10;;;22.60;78.60;;;;;;5093030;28;20679;-49
2023/06/04 09:16:26;;;;;;;11.98;6.40;;;22.80;80.80;;;;;;5092942;28;20506;-49
2023/06/04 09:18:53;;;;;;;8.10;4.75;;;22.90;79.10;;;;;;5092768;28;20165;-49
2023/06/04 09:21:19;;;;;;;4.63;2.90;;;22.90;77.60;;;;;;5092606;28;20289;-50
2023/06/04 09:23:46;;;;;;;7.95;5.00;;;23.30;76.70;;;;;;5092774;28;20192;-49
2023/06/04 09:26:12;;;;;;;3.22;2.28;;;23.30;75.30;;;;;;5092491;28;20170;-50
2023/06/04 09:28:41;;;;;;;10.23;6.85;;;23.20;75.90;;;;;;5092847;28;20192;-49
2023/06/04 09:31:15;;;;;;;3.67;2.58;;;23.40;75.80;;;;;;5092577;28;20173;-49
2023/06/04 09:33:44;;;;;;;4.15;2.00;;;22.90;73.60;;;;;;5092581;28;20252;-49
2023/06/04 09:36:10;;;;;;;3.17;2.13;;;23.40;74.20;;;;;;5092397;28;20157;-49
2023/06/04 09:38:36;;;;;;;5.80;4.47;;;23.60;76.20;;;;;;5074280;28;20680;-49
2023/06/04 09:41:04;;;;;;;2.97;2.10;;;23.80;72.10;;;;;;5092315;28;20189;-50
2023/06/04 09:43:31;;;;;;;9.75;5.03;;;23.60;71.60;;;;;;5092428;28;20178;-49
2023/06/04 09:46:12;;;;;;;2.60;2.40;;;23.20;69.70;;;;;;5092841;28;20636;-49
2023/06/04 09:48:39;;;;;;;9.10;7.00;;;23.70;69.10;;;;;;5092247;28;20312;-49
2023/06/04 09:51:15;;;;;;;4.10;1.95;;;23.80;70.10;;;;;;5091719;28;20169;-49
2023/06/04 09:53:41;;;;;;;2.05;1.85;;;23.40;67.90;;;;;;5073966;28;20257;-50
2023/06/04 09:56:10;;;;;;;7.05;2.90;;;23.70;68.60;;;;;;5092294;28;20169;-49
2023/06/04 09:58:37;;;;;;;6.70;3.45;;;23.90;69.90;;;;;;5092266;28;20231;-49
2023/06/04 10:01:05;;;;;;;6.97;3.25;;;24.10;67.70;;;;;;5091860;28;20577;-49
2023/06/04 10:03:35;;;;;;;3.88;2.55;;;24.10;66.40;;;;;;5091935;28;20157;-49
2023/06/04 10:06:04;;;;;;;11.55;6.53;;;24.30;67.50;;;;;;5091961;28;20177;-49
2023/06/04 10:08:31;;;;;;;4.78;2.35;;;24.00;65.20;;;;;;5091648;28;20225;-49
2023/06/04 10:11:02;;;;;;;8.73;4.10;;;24.20;65.70;;;;;;5092062;28;20165;-49
2023/06/04 10:13:31;;;;;;;5.20;3.28;;;24.20;64.30;;;;;;5091955;28;20209;-49
2023/06/04 10:16:01;;;;;;;7.97;4.93;;;24.90;67.40;;;;;;5091952;28;20300;-50
2023/06/04 10:18:28;;;;;;;4.25;2.38;;;24.40;67.10;;;;;;5091983;28;20169;-49
2023/06/04 10:20:56;;;;;;;2.15;1.73;;;24.30;64.20;;;;;;5091861;28;20256;-49
2023/06/04 10:23:23;;;;;;;5.70;2.25;;;24.20;62.50;;;;;;5073329;28;20180;-49
2023/06/04 10:25:53;;;;;;;2.58;1.80;;;24.60;64.20;;;;;;5091602;28;21061;-49
2023/06/04 10:28:20;;;;;;;2.67;2.03;;;24.60;62.50;;;;;;5091509;28;20671;-49
2023/06/04 10:30:47;;;;;;;11.55;4.70;;;24.40;64.30;;;;;;5073374;28;20211;-49
2023/06/04 10:33:14;;;;;;;7.97;3.33;;;24.60;63.20;;;;;;5091182;28;20202;-49
2023/06/04 10:35:40;;;;;;;4.55;1.90;;;24.50;62.60;;;;;;5091319;28;20162;-49
2023/06/04 10:38:09;;;;;;;1.70;1.60;;;25.10;62.60;;;;;;5091065;28;20164;-50
2023/06/04 10:40:36;;;;;;;8.98;4.10;;;24.60;60.50;;;;;;5091429;28;20238;-49
2023/06/04 10:43:06;;;;;;;10.55;4.47;;;24.50;60.70;;;;;;5091025;28;20165;-49
2023/06/04 10:45:32;;;;;;;1.98;1.67;;;24.90;63.40;;;;;;5091409;28;20192;-49
2023/06/04 10:48:08;;;;;;;6.65;1.80;;;24.80;62.80;;;;;;5091384;28;20569;-49
2023/06/04 10:50:46;;;;;;;2.25;1.70;;;24.70;60.30;;;;;;5091071;28;20168;-50
2023/06/04 10:53:12;;;;;;;3.03;1.95;;;25.00;61.70;;;;;;5090750;28;20204;-50
2023/06/04 10:55:44;;;;;;;3.38;1.52;;;24.80;61.30;;;;;;5090722;28;20231;-49
2023/06/04 10:58:10;;;;;;;11.25;5.63;;;24.50;61.70;;;;;;5090742;28;20173;-49
2023/06/04 11:00:42;;;;;;;25.80;10.80;;;24.70;61.70;;;;;;5090857;28;20166;-49
2023/06/04 11:03:10;;;;;;;7.75;4.03;;;24.90;62.30;;;;;;5089730;28;20526;-50
2023/06/04 11:05:37;;;;;;;13.23;5.53;;;24.90;62.40;;;;;;5090995;28;20165;-49
2023/06/04 11:08:07;;;;;;;6.53;2.20;;;25.00;61.50;;;;;;5090589;28;20753;-49
2023/06/04 11:10:37;;;;;;;5.22;1.90;;;25.40;61.10;;;;;;5090585;28;20188;-49
2023/06/04 11:13:03;;;;;;;4.65;1.90;;;25.50;61.40;;;;;;5090790;28;20288;-49
2023/06/04 11:15:45;;;;;;;4.43;1.90;;;25.50;60.70;;;;;;5090816;28;20588;-49
2023/06/04 11:18:28;;;;;;;2.50;2.10;;;25.50;59.60;;;;;;5090519;28;20189;-49
2023/06/04 11:21:03;;;;;;;6.75;1.75;;;26.20;59.20;;;;;;5090758;28;20214;-49
2023/06/04 11:23:29;;;;;;;4.18;2.05;;;25.70;63.20;;;;;;5090353;28;20172;-49
2023/06/04 11:25:55;;;;;;;3.70;1.85;;;25.50;64.10;;;;;;5090767;28;20169;-49
2023/06/04 11:28:24;;;;;;;5.70;1.88;;;25.20;62.20;;;;;;5090957;28;20211;-49
2023/06/04 11:31:02;;;;;;;6.35;2.00;;;25.20;61.60;;;;;;5090584;28;20243;-49
2023/06/04 11:33:29;;;;;;;3.55;2.28;;;25.40;63.90;;;;;;5072158;28;20593;-49
2023/06/04 11:35:55;;;;;;;4.70;2.50;;;25.50;63.10;;;;;;5090822;28;20230;-49
2023/06/04 11:38:20;;;;;;;6.70;1.98;;;25.60;63.10;;;;;;5090100;28;20601;-49
2023/06/04 11:41:01;;;;;;;4.55;1.77;;;24.90;60.90;;;;;;5090149;28;20161;-49
2023/06/04 11:43:28;;;;;;;4.90;1.95;;;25.50;61.80;;;;;;5090419;28;20243;-49
2023/06/04 11:45:54;;;;;;;6.30;1.85;;;26.00;60.90;;;;;;5090679;28;20169;-49
2023/06/04 11:48:20;;;;;;;2.10;1.90;;;25.90;62.70;;;;;;5090167;28;20211;-49
2023/06/04 11:50:46;;;;;;;5.80;2.15;;;25.40;62.80;;;;;;5089977;28;20690;-49
2023/06/04 11:53:11;;;;;;;3.28;1.98;;;25.50;64.10;;;;;;5089826;28;20208;-49
2023/06/04 11:55:38;;;;;;;3.90;1.83;;;26.10;63.70;;;;;;5089975;28;20180;-49
2023/06/04 11:58:04;;;;;;;4.07;1.95;;;25.90;62.50;;;;;;5089737;28;20213;-49
2023/06/04 12:00:30;;;;;;;1.85;1.70;;;25.80;62.70;;;;;;5089679;28;20652;-49
2023/06/04 12:02:56;;;;;;;2.63;1.92;;;26.00;62.20;;;;;;5090584;28;20201;-49
2023/06/04 12:05:28;;;;;;;2.15;1.90;;;25.50;62.20;;;;;;5089941;28;20165;-49
2023/06/04 12:08:05;;;;;;;4.78;1.90;;;25.50;66.80;;;;;;5090163;28;20216;-49
2023/06/04 12:10:37;;;;;;;2.78;2.00;;;25.50;64.20;;;;;;5089949;28;20226;-49
2023/06/04 12:13:02;;;;;;;2.28;2.08;;;25.40;74.80;;;;;;5089457;28;20276;-49
2023/06/04 12:15:28;;;;;;;3.10;2.10;;;25.80;77.70;;;;;;5094379;28;20495;-49
2023/06/04 12:17:54;;;;;;;5.68;1.98;;;25.70;83.90;;;;;;5096756;28;20173;-49
2023/06/04 12:20:35;;;;;;;5.53;2.10;;;25.80;84.40;;;;;;5096712;28;20172;-49
2023/06/04 12:23:02;;;;;;;3.10;1.92;;;25.50;80.80;;;;;;5095471;28;20168;-49
2023/06/04 12:25:28;;;;;;;2.20;2.00;;;26.20;88.90;;;;;;5096793;28;20173;-49
2023/06/04 12:27:54;;;;;;;3.35;1.75;;;25.90;84.10;;;;;;5096688;28;20165;-49
2023/06/04 12:30:19;;;;;;;6.93;1.80;;;26.30;65.80;;;;;;5096248;28;20172;-49
2023/06/04 12:32:45;;;;;;;4.78;2.15;;;26.30;79.30;;;;;;5096382;28;20664;-49
2023/06/04 12:35:11;;;;;;;3.08;2.30;;;26.10;84.20;;;;;;5096573;28;20165;-49
2023/06/04 12:37:37;;;;;;;2.28;2.05;;;26.70;84.80;;;;;;5096285;28;20651;-49
2023/06/04 12:40:04;;;;;;;4.93;2.17;;;26.60;84.80;;;;;;5096367;28;20678;-49
2023/06/04 12:42:31;;;;;;;9.18;2.90;;;26.20;92.30;;;;;;5096285;28;20180;-50
2023/06/04 12:44:57;;;;;;;4.93;2.05;;;26.60;85.60;;;;;;5096641;28;20252;-49
2023/06/04 12:47:22;;;;;;;3.72;2.25;;;26.30;85.20;;;;;;5096458;28;20236;-49
2023/06/04 12:49:48;;;;;;;2.78;1.92;;;26.80;87.60;;;;;;5095938;28;20255;-49